Time;durP1;ratioP1;P1;durP2;ratioP2;P2;SDS_P1;SDS_P2;PMS_P1;PMS_P2;Temp;Humidity;BMP_temperature;BMP_pressure;BME280_temperature;BME280_humidity;BME280_pressure;Samples;Min_cycle;Max_cycle;Signal;HPM_P1;HPM_P2
2023/02/22 00:00:51;;;;;;;30.83;20.13;;;15.40;84.50;;;;;;4170941;28;20186;-62
2023/02/22 00:03:33;;;;;;;27.60;18.88;;;15.40;84.60;;;;;;4167563;28;20053;-61
2023/02/22 00:06:17;;;;;;;32.00;19.35;;;15.30;84.60;;;;;;4156940;28;20061;-62
2023/02/22 00:08:59;;;;;;;30.02;18.63;;;15.30;84.60;;;;;;4158215;28;20134;-62
2023/02/22 00:11:46;;;;;;;32.33;19.17;;;15.40;84.80;;;;;;4158558;28;20072;-63
2023/02/22 00:14:28;;;;;;;27.23;18.30;;;15.30;84.70;;;;;;4171888;28;20064;-61
2023/02/22 00:17:12;;;;;;;31.75;19.30;;;15.30;84.80;;;;;;4178093;28;20126;-63
2023/02/22 00:19:53;;;;;;;32.25;19.58;;;15.30;84.80;;;;;;4170605;28;20118;-63
2023/02/22 00:22:34;;;;;;;29.98;19.15;;;15.30;84.90;;;;;;4161505;28;20056;-63
2023/02/22 00:25:18;;;;;;;31.60;19.15;;;15.30;84.90;;;;;;4161675;28;20056;-63
2023/02/22 00:27:59;;;;;;;34.67;20.02;;;15.30;85.00;;;;;;4166573;28;20060;-63
2023/02/22 00:30:42;;;;;;;;;;;15.30;85.10;;;;;;4178546;28;20078;-63
2023/02/22 00:33:23;;;;;;;34.63;19.65;;;15.30;85.00;;;;;;4173009;28;19932;-62
2023/02/22 00:36:05;;;;;;;;;;;15.20;86.30;;;;;;4161632;28;20060;-62
2023/02/22 00:38:45;;;;;;;32.13;19.40;;;15.30;85.40;;;;;;4160975;28;19928;-62
2023/02/22 00:41:28;;;;;;;30.38;17.73;;;15.30;86.80;;;;;;4149426;28;20064;-63
2023/02/22 00:44:09;;;;;;;33.25;18.17;;;15.30;86.70;;;;;;4149197;28;20048;-62
2023/02/22 00:46:53;;;;;;;28.63;17.83;;;15.40;85.60;;;;;;4148977;28;20538;-62
2023/02/22 00:49:35;;;;;;;35.88;18.20;;;15.50;85.30;;;;;;4149107;28;20055;-62
2023/02/22 00:52:16;;;;;;;26.33;15.95;;;15.60;85.10;;;;;;4161248;28;20056;-62
2023/02/22 00:54:58;;;;;;;27.35;17.48;;;15.60;85.00;;;;;;4148858;28;20503;-62
2023/02/22 00:57:39;;;;;;;26.17;16.98;;;15.60;84.80;;;;;;4160798;28;20065;-62
2023/02/22 01:00:23;;;;;;;25.95;16.08;;;15.70;84.70;;;;;;4175650;28;20508;-63
2023/02/22 01:03:06;;;;;;;26.17;16.20;;;15.70;84.60;;;;;;4152948;28;20075;-61
2023/02/22 01:05:48;;;;;;;27.42;17.30;;;15.70;84.50;;;;;;4149726;28;20519;-62
2023/02/22 01:08:30;;;;;;;25.83;15.63;;;15.70;84.50;;;;;;4164133;28;20150;-63
2023/02/22 01:11:10;;;;;;;24.75;16.00;;;15.70;84.50;;;;;;4160279;28;20567;-62
2023/02/22 01:13:52;;;;;;;30.67;16.80;;;15.70;84.40;;;;;;4166871;28;20052;-62
2023/02/22 01:16:34;;;;;;;22.65;14.98;;;15.70;84.30;;;;;;4177059;28;20396;-62
2023/02/22 01:19:16;;;;;;;25.27;15.85;;;15.80;84.20;;;;;;4160526;28;20052;-63
2023/02/22 01:21:57;;;;;;;24.15;15.73;;;15.80;84.10;;;;;;4164946;28;20507;-63
2023/02/22 01:24:38;;;;;;;25.15;15.85;;;15.80;84.10;;;;;;4151813;28;20076;-62
2023/02/22 01:27:19;;;;;;;24.87;15.50;;;15.80;85.00;;;;;;4160905;28;20049;-62
2023/02/22 01:30:01;;;;;;;24.85;15.85;;;15.80;83.90;;;;;;4148520;28;20628;-62
2023/02/22 01:32:42;;;;;;;22.65;15.70;;;15.90;83.90;;;;;;4160499;28;20060;-68
2023/02/22 01:35:28;;;;;;;24.38;15.13;;;15.90;83.70;;;;;;4148463;28;20712;-67
2023/02/22 01:38:10;;;;;;;24.90;15.20;;;15.90;83.40;;;;;;4160844;28;20122;-67
2023/02/22 01:40:53;;;;;;;22.90;15.57;;;15.90;83.40;;;;;;4148595;28;20103;-63
2023/02/22 01:43:33;;;;;;;24.23;15.57;;;16.00;83.40;;;;;;4162815;28;20048;-63
2023/02/22 01:46:23;;;;;;;22.55;15.55;;;16.10;83.20;;;;;;4176406;28;20392;-67
2023/02/22 01:49:06;;;;;;;22.20;14.68;;;16.10;83.00;;;;;;4176726;28;20064;-68
2023/02/22 01:51:51;;;;;;;;;;;16.10;82.80;;;;;;4164705;28;20056;-68
2023/02/22 01:54:37;;;;;;;23.55;15.48;;;16.20;82.80;;;;;;4173500;28;20412;-67
2023/02/22 01:57:23;;;;;;;22.50;14.80;;;16.20;82.60;;;;;;4176339;28;20400;-68
2023/02/22 02:00:09;;;;;;;22.10;15.18;;;16.20;82.30;;;;;;4159227;28;20060;-68
2023/02/22 02:02:58;;;;;;;24.60;15.77;;;16.20;82.30;;;;;;4160349;28;20495;-67
2023/02/22 02:05:39;;;;;;;21.48;14.88;;;16.30;82.20;;;;;;4159704;28;20060;-68
2023/02/22 02:08:29;;;;;;;20.65;14.13;;;16.30;82.20;;;;;;4147631;28;20246;-67
2023/02/22 02:11:10;;;;;;;24.17;14.27;;;16.20;82.10;;;;;;4136296;28;20064;-67
2023/02/22 02:13:53;;;;;;;20.73;13.95;;;16.20;82.30;;;;;;4152028;28;20051;-67
2023/02/22 02:16:39;;;;;;;22.25;14.90;;;16.30;82.30;;;;;;4176217;28;20117;-68
2023/02/22 02:19:35;;;;;;;20.48;14.30;;;16.30;82.10;;;;;;4158050;28;20512;-67
2023/02/22 02:22:37;;;;;;;21.08;14.52;;;16.30;82.00;;;;;;4143572;28;20120;-67
2023/02/22 02:25:44;;;;;;;21.35;14.52;;;16.20;81.80;;;;;;4143320;28;20052;-67
2023/02/22 02:29:07;;;;;;;23.48;16.45;;;16.30;82.10;;;;;;4143781;28;20060;-68
2023/02/22 02:32:25;;;;;;;24.13;16.20;;;16.30;81.80;;;;;;4159323;28;20056;-68
2023/02/22 02:35:13;;;;;;;22.80;16.10;;;16.40;81.50;;;;;;4144513;28;20052;-68
2023/02/22 02:38:01;;;;;;;24.55;16.55;;;16.40;81.50;;;;;;4142253;28;20123;-67
2023/02/22 02:40:48;;;;;;;22.27;15.10;;;16.40;81.30;;;;;;4143573;28;20401;-67
2023/02/22 02:43:33;;;;;;;24.70;16.38;;;16.40;81.30;;;;;;4143715;28;20053;-67
2023/02/22 02:46:19;;;;;;;23.00;15.65;;;16.40;81.30;;;;;;4159608;28;20512;-66
2023/02/22 02:49:06;;;;;;;23.10;16.08;;;16.40;81.40;;;;;;4159961;28;20404;-68
2023/02/22 02:51:52;;;;;;;24.42;16.73;;;16.30;81.30;;;;;;4158761;28;20396;-68
2023/02/22 02:54:37;;;;;;;22.73;14.93;;;16.30;81.50;;;;;;4157686;28;20178;-67
2023/02/22 02:57:18;;;;;;;23.67;16.30;;;16.30;81.70;;;;;;4144064;28;20508;-67
2023/02/22 02:59:59;;;;;;;24.48;15.98;;;16.20;81.90;;;;;;4144314;28;20065;-68
2023/02/22 03:02:51;;;;;;;23.73;15.63;;;16.20;82.30;;;;;;4143477;28;20104;-63
2023/02/22 03:06:04;;;;;;;25.27;16.20;;;16.20;82.40;;;;;;4142947;28;20134;-65
2023/02/22 03:08:53;;;;;;;23.05;14.82;;;16.30;82.00;;;;;;4141932;28;20108;-67
2023/02/22 03:11:41;;;;;;;21.63;15.02;;;16.40;81.70;;;;;;4143274;28;20592;-63
2023/02/22 03:14:29;;;;;;;22.80;15.52;;;16.40;81.40;;;;;;4151741;28;20187;-63
2023/02/22 03:17:17;;;;;;;23.48;15.13;;;16.40;81.30;;;;;;4158894;28;20513;-63
2023/02/22 03:20:08;;;;;;;21.95;14.80;;;16.40;81.40;;;;;;4142913;28;20053;-61
2023/02/22 03:22:58;;;;;;;22.57;15.77;;;16.40;81.50;;;;;;4139542;28;20567;-62
2023/02/22 03:25:43;;;;;;;21.92;13.95;;;16.30;81.50;;;;;;4126678;28;20061;-64
2023/02/22 03:28:27;;;;;;;22.25;14.75;;;16.30;81.80;;;;;;4125566;28;20402;-63
2023/02/22 03:31:12;;;;;;;24.80;15.35;;;16.30;81.90;;;;;;4126634;28;20120;-63
2023/02/22 03:33:59;;;;;;;25.08;14.85;;;16.30;81.70;;;;;;4145123;28;20061;-63
2023/02/22 03:36:47;;;;;;;22.58;16.00;;;16.40;81.50;;;;;;4153253;28;20502;-63
2023/02/22 03:39:31;;;;;;;24.85;15.40;;;16.40;81.20;;;;;;4142015;28;20048;-63
2023/02/22 03:42:18;;;;;;;22.73;15.32;;;16.40;81.10;;;;;;4141455;28;20243;-63
2023/02/22 03:45:04;;;;;;;23.48;15.32;;;16.40;81.10;;;;;;4141399;28;20104;-63
2023/02/22 03:47:50;;;;;;;22.52;15.15;;;16.40;81.10;;;;;;4128554;28;20053;-63
2023/02/22 03:50:34;;;;;;;20.67;13.73;;;16.40;81.10;;;;;;4156140;28;20065;-67
2023/02/22 03:53:18;;;;;;;26.00;15.70;;;16.40;81.10;;;;;;4156072;28;20056;-67
2023/02/22 03:56:07;;;;;;;25.60;15.95;;;16.40;81.40;;;;;;4129051;28;20052;-66
2023/02/22 03:58:49;;;;;;;22.45;15.68;;;16.40;81.20;;;;;;4128529;28;20496;-66
2023/02/22 04:01:31;;;;;;;25.02;15.82;;;16.40;81.10;;;;;;4143906;28;20061;-66
2023/02/22 04:04:11;;;;;;;23.77;16.30;;;16.40;81.00;;;;;;4145139;28;20053;-61
2023/02/22 04:06:52;;;;;;;23.30;15.97;;;16.50;81.00;;;;;;4144024;28;20168;-66
2023/02/22 04:09:34;;;;;;;22.48;15.30;;;16.40;81.00;;;;;;4144438;28;20057;-66
2023/02/22 04:12:17;;;;;;;24.13;15.45;;;16.40;80.90;;;;;;4144670;28;20068;-67
2023/02/22 04:15:14;;;;;;;23.23;16.20;;;16.30;81.00;;;;;;4141105;28;20053;-62
2023/02/22 04:17:55;;;;;;;22.15;14.85;;;16.30;81.00;;;;;;4158166;28;20507;-61
2023/02/22 04:20:36;;;;;;;24.03;15.57;;;16.30;81.20;;;;;;4161496;28;20064;-62
2023/02/22 04:23:35;;;;;;;26.45;15.18;;;16.40;81.10;;;;;;4137513;28;20353;-69
2023/02/22 04:26:16;;;;;;;22.30;14.57;;;16.50;80.90;;;;;;4168015;28;20064;-67
2023/02/22 04:29:04;;;;;;;26.13;16.00;;;16.50;80.60;;;;;;4148973;28;20056;-66
2023/02/22 04:31:50;;;;;;;22.95;16.27;;;16.50;80.30;;;;;;4148802;28;20052;-67
2023/02/22 04:34:31;;;;;;;;;;;16.50;80.30;;;;;;4168406;28;20063;-66
2023/02/22 04:37:13;;;;;;;24.27;15.60;;;16.50;80.30;;;;;;4178137;28;19932;-67
2023/02/22 04:39:53;;;;;;;29.80;18.42;;;16.60;80.20;;;;;;4158305;28;20052;-67
2023/02/22 04:42:35;;;;;;;25.13;16.25;;;16.50;80.00;;;;;;4149252;28;20099;-62
2023/02/22 04:45:18;;;;;;;25.17;16.58;;;16.50;80.00;;;;;;4161511;28;20059;-63
2023/02/22 04:47:58;;;;;;;27.67;17.08;;;16.50;80.00;;;;;;4165374;28;20506;-63
2023/02/22 04:50:40;;;;;;;28.48;17.30;;;16.50;80.20;;;;;;4165293;28;20083;-63
2023/02/22 04:53:21;;;;;;;27.90;18.08;;;16.40;80.30;;;;;;4165086;28;20068;-63
2023/02/22 04:56:02;;;;;;;27.33;18.58;;;16.30;80.40;;;;;;4160369;28;20406;-63
2023/02/22 04:58:43;;;;;;;32.25;19.17;;;16.30;80.60;;;;;;4170020;28;20090;-63
2023/02/22 05:01:26;;;;;;;29.92;18.05;;;16.30;81.00;;;;;;4164556;28;20175;-63
2023/02/22 05:04:08;;;;;;;28.23;17.90;;;16.30;81.00;;;;;;4174431;28;20060;-62
2023/02/22 05:06:48;;;;;;;;;;;16.30;80.80;;;;;;4161830;28;20171;-63
2023/02/22 05:09:29;;;;;;;30.83;19.80;;;16.30;80.70;;;;;;4160992;28;19931;-61
2023/02/22 05:12:10;;;;;;;30.83;18.90;;;16.40;80.80;;;;;;4160877;28;20056;-62
2023/02/22 05:14:51;;;;;;;31.02;18.38;;;16.40;80.70;;;;;;4169238;28;20429;-63
2023/02/22 05:17:34;;;;;;;30.83;19.58;;;16.40;80.80;;;;;;4177286;28;20126;-63
2023/02/22 05:20:22;;;;;;;28.67;18.65;;;16.30;80.80;;;;;;4176751;28;20052;-63
2023/02/22 05:23:04;;;;;;;30.38;19.42;;;16.30;81.00;;;;;;4177172;28;20130;-63
2023/02/22 05:25:45;;;;;;;28.65;18.63;;;16.30;81.20;;;;;;4176630;28;20511;-63
2023/02/22 05:28:27;;;;;;;28.52;18.50;;;16.40;81.10;;;;;;4176505;28;20131;-63
2023/02/22 05:31:08;;;;;;;28.70;18.77;;;16.40;80.90;;;;;;4177293;28;20051;-62
2023/02/22 05:33:51;;;;;;;32.67;19.02;;;16.40;80.70;;;;;;4174906;28;20868;-62
2023/02/22 05:36:32;;;;;;;29.77;19.65;;;16.40;80.60;;;;;;4175481;28;20048;-63
2023/02/22 05:39:12;;;;;;;33.40;20.03;;;16.40;80.70;;;;;;4164067;28;20114;-63
2023/02/22 05:41:53;;;;;;;30.38;19.88;;;16.40;80.60;;;;;;4148544;28;20061;-62
2023/02/22 05:44:34;;;;;;;34.40;20.25;;;16.40;80.60;;;;;;4172119;28;20059;-61
2023/02/22 05:47:15;;;;;;;33.95;21.58;;;16.50;80.50;;;;;;4176318;28;20052;-62
2023/02/22 05:49:58;;;;;;;36.95;22.25;;;16.50;80.70;;;;;;4160123;28;20068;-63
2023/02/22 05:52:39;;;;;;;40.80;25.08;;;16.50;80.90;;;;;;4160003;28;20407;-63
2023/02/22 05:55:22;;;;;;;45.67;25.15;;;16.50;80.90;;;;;;4160710;28;20499;-63
2023/02/22 05:58:04;;;;;;;40.63;25.20;;;16.50;80.80;;;;;;4160973;28;20060;-63
2023/02/22 06:00:45;;;;;;;43.35;24.98;;;16.50;80.50;;;;;;4164078;28;20084;-63
2023/02/22 06:03:27;;;;;;;42.13;25.02;;;16.60;80.30;;;;;;4153772;28;20183;-63
2023/02/22 06:06:09;;;;;;;48.43;27.60;;;16.60;80.10;;;;;;4159640;28;20869;-61
2023/02/22 06:08:50;;;;;;;49.80;29.80;;;16.60;80.00;;;;;;4166203;28;20527;-62
2023/02/22 06:11:31;;;;;;;;;;;16.50;80.00;;;;;;4163905;28;20052;-64
2023/02/22 06:14:12;;;;;;;50.03;27.27;;;16.50;80.30;;;;;;4176377;28;19928;-63
2023/02/22 06:16:53;;;;;;;45.28;26.33;;;16.50;80.80;;;;;;4175918;28;20052;-63
2023/02/22 06:19:35;;;;;;;44.20;25.83;;;16.40;80.60;;;;;;4167918;28;20056;-62
2023/02/22 06:22:19;;;;;;;48.38;27.70;;;16.30;80.80;;;;;;4159573;28;20122;-62
2023/02/22 06:24:59;;;;;;;49.42;27.80;;;16.30;81.00;;;;;;4159821;28;20126;-62
2023/02/22 06:27:40;;;;;;;46.63;26.70;;;16.20;81.00;;;;;;4159512;28;20411;-61
2023/02/22 06:30:23;;;;;;;55.97;29.73;;;16.20;81.30;;;;;;4159823;28;20194;-62
2023/02/22 06:33:04;;;;;;;57.90;30.60;;;16.10;81.30;;;;;;4159602;28;20094;-70
2023/02/22 06:35:45;;;;;;;57.45;31.52;;;16.10;81.40;;;;;;4159554;28;20060;-70
2023/02/22 06:38:27;;;;;;;54.15;31.80;;;16.00;81.50;;;;;;4159812;28;20052;-69
2023/02/22 06:41:09;;;;;;;55.85;30.02;;;16.00;81.70;;;;;;4159897;28;20044;-70
2023/02/22 06:43:50;;;;;;;56.88;31.42;;;16.00;81.80;;;;;;4159110;28;20607;-68
2023/02/22 06:46:31;;;;;;;50.22;27.63;;;15.90;81.90;;;;;;4159202;28;20052;-70
2023/02/22 06:49:13;;;;;;;54.35;29.67;;;15.90;82.20;;;;;;4147055;28;20063;-70
2023/02/22 06:51:54;;;;;;;58.03;31.35;;;15.90;82.50;;;;;;4170153;28;20064;-69
2023/02/22 06:54:38;;;;;;;56.28;31.67;;;15.90;82.40;;;;;;4146883;28;20535;-68
2023/02/22 06:57:19;;;;;;;62.58;32.78;;;16.00;81.90;;;;;;4164032;28;20052;-68
2023/02/22 07:00:00;;;;;;;61.43;34.83;;;16.00;81.70;;;;;;4175293;28;20063;-69
2023/02/22 07:02:42;;;;;;;60.58;33.22;;;16.10;81.60;;;;;;4158414;28;20072;-69
2023/02/22 07:05:24;;;;;;;54.97;30.55;;;16.10;82.50;;;;;;4172827;28;20052;-70
2023/02/22 07:08:07;;;;;;;57.80;31.70;;;16.10;81.60;;;;;;4161418;28;20056;-65
2023/02/22 07:10:51;;;;;;;60.10;33.45;;;16.10;81.50;;;;;;4157689;28;20060;-65
2023/02/22 07:13:32;;;;;;;62.00;32.58;;;16.00;81.50;;;;;;4175236;28;20183;-63
2023/02/22 07:16:12;;;;;;;60.63;32.97;;;16.00;81.50;;;;;;4174320;28;20052;-63
2023/02/22 07:18:54;;;;;;;58.67;31.83;;;16.00;81.50;;;;;;4175032;28;20060;-61
2023/02/22 07:21:35;;;;;;;64.13;33.70;;;15.90;81.60;;;;;;4175114;28;20059;-61
2023/02/22 07:24:15;;;;;;;64.45;34.72;;;15.90;81.60;;;;;;4174728;28;20052;-65
2023/02/22 07:27:00;;;;;;;54.58;29.88;;;15.90;81.70;;;;;;4175672;28;20052;-65
2023/02/22 07:29:42;;;;;;;59.17;31.25;;;15.80;82.50;;;;;;4162710;28;20055;-66
2023/02/22 07:32:24;;;;;;;60.58;32.65;;;15.80;81.80;;;;;;4175170;28;20118;-65
2023/02/22 07:35:05;;;;;;;64.50;33.47;;;15.80;81.90;;;;;;4162700;28;20495;-62
2023/02/22 07:37:46;;;;;;;67.90;31.90;;;15.80;82.10;;;;;;4162545;28;20059;-62
2023/02/22 07:40:28;;;;;;;;;;;15.70;82.10;;;;;;4175181;28;20051;-62
2023/02/22 07:43:17;;;;;;;64.38;32.28;;;15.70;82.30;;;;;;4174464;28;20291;-63
2023/02/22 07:46:01;;;;;;;66.38;36.05;;;15.70;82.80;;;;;;4162359;28;20040;-62
2023/02/22 07:48:42;;;;;;;66.13;32.85;;;15.70;82.90;;;;;;4174951;28;20103;-62
2023/02/22 07:51:23;;;;;;;65.85;34.00;;;15.80;82.60;;;;;;4174586;28;20048;-62
2023/02/22 07:54:05;;;;;;;63.03;33.05;;;15.80;82.30;;;;;;4158445;28;20064;-63
2023/02/22 07:56:46;;;;;;;71.28;34.67;;;15.80;81.90;;;;;;4158315;28;20056;-62
2023/02/22 07:59:28;;;;;;;;;;;15.90;81.80;;;;;;4158763;28;20191;-61
2023/02/22 08:02:15;;;;;;;66.18;33.45;;;15.90;81.70;;;;;;4146031;28;19932;-62
2023/02/22 08:04:57;;;;;;;67.18;34.28;;;15.90;81.50;;;;;;4158847;28;20075;-61
2023/02/22 08:07:38;;;;;;;60.33;32.30;;;16.00;81.50;;;;;;4157914;28;20515;-62
2023/02/22 08:10:22;;;;;;;64.57;32.88;;;16.00;81.30;;;;;;4151016;28;20056;-63
2023/02/22 08:13:05;;;;;;;62.65;33.58;;;16.00;80.90;;;;;;4163858;28;20134;-62
2023/02/22 08:15:47;;;;;;;59.97;33.30;;;16.00;80.50;;;;;;4158371;28;20520;-63
2023/02/22 08:18:28;;;;;;;59.83;29.80;;;16.00;80.70;;;;;;4157811;28;20060;-62
2023/02/22 08:21:09;;;;;;;61.20;32.17;;;16.10;80.50;;;;;;4173698;28;20055;-63
2023/02/22 08:23:53;;;;;;;60.55;31.90;;;16.10;80.30;;;;;;4171401;28;20194;-61
2023/02/22 08:26:34;;;;;;;56.83;30.50;;;16.10;79.80;;;;;;4174752;28;20048;-64
2023/02/22 08:29:15;;;;;;;60.30;29.85;;;16.10;79.60;;;;;;4174551;28;20056;-65
2023/02/22 08:31:57;;;;;;;59.50;31.08;;;16.10;79.60;;;;;;4174880;28;20478;-65
2023/02/22 08:34:39;;;;;;;61.72;32.38;;;16.10;79.30;;;;;;4171065;28;20130;-65
2023/02/22 08:37:20;;;;;;;70.43;35.90;;;16.10;79.20;;;;;;4169290;28;20044;-64
2023/02/22 08:40:01;;;;;;;62.35;33.10;;;16.10;79.30;;;;;;4177199;28;20400;-64
2023/02/22 08:42:42;;;;;;;62.50;31.95;;;16.10;79.40;;;;;;4177660;28;20048;-63
2023/02/22 08:45:23;;;;;;;61.93;34.47;;;16.00;79.40;;;;;;4177772;28;20060;-63
2023/02/22 08:48:05;;;;;;;61.15;31.90;;;16.00;79.70;;;;;;4175978;28;20048;-63
2023/02/22 08:50:47;;;;;;;58.28;31.95;;;15.90;79.60;;;;;;4177617;28;20483;-61
2023/02/22 08:53:29;;;;;;;63.05;32.55;;;15.90;80.10;;;;;;4176999;28;20059;-66
2023/02/22 08:56:09;;;;;;;;;;;15.90;80.40;;;;;;4165085;28;20787;-65
2023/02/22 08:58:50;;;;;;;67.88;32.85;;;15.80;80.70;;;;;;4173307;28;20010;-66
2023/02/22 09:01:33;;;;;;;59.80;30.65;;;15.80;81.00;;;;;;4177154;28;20056;-66
2023/02/22 09:04:16;;;;;;;63.92;33.40;;;15.80;81.10;;;;;;4176885;28;20055;-66
2023/02/22 09:06:58;;;;;;;60.53;32.28;;;15.70;81.10;;;;;;4177160;28;20044;-66
2023/02/22 09:09:39;;;;;;;56.40;31.10;;;15.70;81.20;;;;;;4177182;28;20130;-65
2023/02/22 09:12:20;;;;;;;60.45;30.85;;;15.70;81.40;;;;;;4175679;28;20055;-65
2023/02/22 09:15:01;;;;;;;65.82;33.75;;;15.70;82.70;;;;;;4169689;28;20052;-68
2023/02/22 09:17:42;;;;;;;59.97;32.22;;;15.80;81.60;;;;;;4162722;28;20061;-68
2023/02/22 09:20:25;;;;;;;55.92;29.48;;;15.90;81.20;;;;;;4160314;28;20190;-69
2023/02/22 09:23:08;;;;;;;57.55;31.02;;;15.90;81.00;;;;;;4148309;28;20122;-68
2023/02/22 09:25:50;;;;;;;60.63;32.05;;;16.00;80.50;;;;;;4173810;28;20052;-69
2023/02/22 09:28:31;;;;;;;59.80;31.90;;;16.00;80.20;;;;;;4160076;28;20069;-70
2023/02/22 09:31:12;;;;;;;65.68;34.35;;;16.00;80.20;;;;;;4160327;28;20404;-69
2023/02/22 09:33:53;;;;;;;57.00;31.17;;;16.00;79.50;;;;;;4160645;28;20088;-62
2023/02/22 09:36:38;;;;;;;60.38;32.55;;;16.00;80.50;;;;;;4166736;28;20512;-68
2023/02/22 09:39:20;;;;;;;61.85;31.80;;;16.00;80.80;;;;;;4175380;28;20051;-59
2023/02/22 09:42:08;;;;;;;62.17;32.92;;;16.00;81.60;;;;;;4169565;28;20060;-64
2023/02/22 09:44:55;;;;;;;64.20;32.28;;;16.00;82.30;;;;;;4157860;28;20052;-67
2023/02/22 09:47:45;;;;;;;67.13;32.50;;;16.00;82.40;;;;;;4159059;28;20163;-68
2023/02/22 09:50:30;;;;;;;57.40;32.03;;;16.00;82.00;;;;;;4173799;28;20060;-62
2023/02/22 09:53:28;;;;;;;64.18;31.02;;;16.00;82.40;;;;;;4170869;28;20048;-62
2023/02/22 09:56:12;;;;;;;60.63;32.33;;;16.00;82.30;;;;;;4159722;28;20106;-62
2023/02/22 09:58:56;;;;;;;58.97;31.27;;;15.90;82.50;;;;;;4173311;28;20179;-62
2023/02/22 10:01:43;;;;;;;60.35;31.13;;;15.90;82.50;;;;;;4172864;28;20071;-61
2023/02/22 10:04:29;;;;;;;57.60;28.92;;;15.90;82.40;;;;;;4173465;28;20167;-63
2023/02/22 10:07:18;;;;;;;59.55;31.25;;;15.90;82.40;;;;;;4172222;28;20072;-63
2023/02/22 10:10:05;;;;;;;55.92;31.40;;;15.80;82.10;;;;;;4170896;28;20071;-62
2023/02/22 10:12:57;;;;;;;55.97;30.50;;;15.80;82.10;;;;;;4172236;28;20068;-63
2023/02/22 10:15:47;;;;;;;54.00;29.52;;;15.80;81.70;;;;;;4172346;28;20064;-67
2023/02/22 10:18:58;;;;;;;52.42;28.67;;;15.80;81.60;;;;;;4172733;28;20094;-68
2023/02/22 10:21:58;;;;;;;;;;;15.70;81.80;;;;;;4171826;28;20059;-69
2023/02/22 10:24:50;;;;;;;59.28;29.67;;;15.70;82.40;;;;;;4170264;28;19932;-70
2023/02/22 10:27:37;;;;;;;56.47;29.73;;;15.70;82.60;;;;;;4172104;28;20229;-69
2023/02/22 10:30:21;;;;;;;54.10;28.63;;;15.60;82.40;;;;;;4172687;28;20055;-69
2023/02/22 10:33:10;;;;;;;58.33;30.52;;;15.60;82.40;;;;;;4171939;28;20059;-68
2023/02/22 10:35:52;;;;;;;57.75;27.65;;;15.60;82.00;;;;;;4171600;28;20122;-68
2023/02/22 10:38:35;;;;;;;56.65;29.05;;;15.60;81.80;;;;;;4171751;28;20118;-67
2023/02/22 10:41:24;;;;;;;57.45;29.08;;;15.60;81.80;;;;;;4172186;28;20136;-69
2023/02/22 10:44:07;;;;;;;54.83;27.73;;;15.60;82.00;;;;;;4171606;28;20114;-68
2023/02/22 10:46:49;;;;;;;53.65;26.98;;;15.60;82.80;;;;;;4171802;28;20060;-64
2023/02/22 10:49:37;;;;;;;55.30;27.20;;;15.60;82.80;;;;;;4172699;28;20060;-66
2023/02/22 10:52:24;;;;;;;59.45;28.02;;;15.50;82.40;;;;;;4171327;28;20048;-66
2023/02/22 10:55:11;;;;;;;55.95;27.23;;;15.50;82.70;;;;;;4172051;28;20415;-64
2023/02/22 10:58:01;;;;;;;51.65;26.63;;;15.50;83.20;;;;;;4172278;28;20064;-62
2023/02/22 11:00:44;;;;;;;55.72;26.15;;;15.60;83.70;;;;;;4170908;28;20060;-62
2023/02/22 11:03:26;;;;;;;53.58;24.50;;;15.60;84.20;;;;;;4159755;28;20056;-63
2023/02/22 11:06:20;;;;;;;49.40;23.88;;;15.70;84.20;;;;;;4172880;28;20060;-64
2023/02/22 11:09:09;;;;;;;42.22;21.42;;;15.80;83.70;;;;;;4171600;28;20106;-64
2023/02/22 11:12:07;;;;;;;45.03;21.52;;;15.70;83.70;;;;;;4171451;28;20051;-62
2023/02/22 11:14:48;;;;;;;37.78;19.92;;;15.80;83.60;;;;;;4170975;28;20044;-62
2023/02/22 11:17:33;;;;;;;36.67;20.30;;;15.80;83.40;;;;;;4171798;28;20052;-63
2023/02/22 11:20:24;;;;;;;36.67;20.15;;;15.80;83.10;;;;;;4171062;28;20993;-62
2023/02/22 11:23:06;;;;;;;35.80;19.92;;;15.80;83.40;;;;;;4171856;28;20071;-65
2023/02/22 11:25:51;;;;;;;38.25;20.17;;;15.80;83.40;;;;;;4170453;28;20056;-66
2023/02/22 11:28:32;;;;;;;38.20;19.95;;;15.80;83.40;;;;;;4158634;28;20172;-65
2023/02/22 11:31:16;;;;;;;38.55;20.10;;;15.80;83.20;;;;;;4171744;28;20071;-66
2023/02/22 11:34:01;;;;;;;37.30;19.85;;;15.80;83.10;;;;;;4170616;28;20047;-65
2023/02/22 11:36:45;;;;;;;36.38;20.02;;;15.80;83.00;;;;;;4159089;28;20138;-67
2023/02/22 11:39:28;;;;;;;34.50;19.95;;;15.80;83.10;;;;;;4171147;28;20052;-65
2023/02/22 11:42:23;;;;;;;36.97;20.45;;;15.80;83.00;;;;;;4171053;28;20051;-66
2023/02/22 11:45:13;;;;;;;38.17;20.38;;;15.80;82.60;;;;;;4157408;28;20107;-65
2023/02/22 11:47:57;;;;;;;38.22;21.90;;;15.80;82.90;;;;;;4171791;28;20111;-66
2023/02/22 11:50:55;;;;;;;39.88;21.65;;;15.70;83.60;;;;;;4171370;28;20063;-65
2023/02/22 11:53:51;;;;;;;42.17;22.83;;;15.70;83.50;;;;;;4172225;28;20059;-65
2023/02/22 11:56:39;;;;;;;43.25;23.55;;;15.70;83.40;;;;;;4171312;28;20055;-65
2023/02/22 11:59:31;;;;;;;45.28;23.65;;;15.70;83.50;;;;;;4169710;28;20403;-65
2023/02/22 12:02:30;;;;;;;43.25;23.02;;;15.70;83.40;;;;;;4172000;28;20055;-65
2023/02/22 12:05:35;;;;;;;42.25;23.27;;;15.70;83.40;;;;;;4168786;28;20496;-65
2023/02/22 12:08:25;;;;;;;44.03;23.25;;;15.60;83.70;;;;;;4159577;28;20063;-65
2023/02/22 12:11:18;;;;;;;47.00;22.85;;;15.60;84.00;;;;;;4174821;28;20605;-67
2023/02/22 12:14:17;;;;;;;48.90;24.52;;;15.60;83.90;;;;;;4174610;28;20064;-65
2023/02/22 12:17:23;;;;;;;46.75;24.05;;;15.60;83.90;;;;;;4174312;28;20183;-65
2023/02/22 12:20:13;;;;;;;45.90;25.58;;;15.60;84.20;;;;;;4173618;28;20087;-65
2023/02/22 12:23:02;;;;;;;47.97;25.23;;;15.60;84.20;;;;;;4174708;28;20060;-65
2023/02/22 12:25:57;;;;;;;49.42;24.73;;;15.60;84.20;;;;;;4175137;28;20463;-66
2023/02/22 12:28:42;;;;;;;47.85;24.95;;;15.50;83.70;;;;;;4174234;28;20052;-65
2023/02/22 12:31:28;;;;;;;43.67;23.48;;;15.50;84.00;;;;;;4174067;28;20101;-66
2023/02/22 12:34:18;;;;;;;47.63;25.23;;;15.50;84.20;;;;;;4173712;28;20518;-66
2023/02/22 12:37:06;;;;;;;48.08;25.05;;;15.50;84.10;;;;;;4173227;28;20110;-66
2023/02/22 12:39:56;;;;;;;49.85;25.85;;;15.50;84.20;;;;;;4174129;28;20130;-65
2023/02/22 12:42:48;;;;;;;48.58;25.63;;;15.50;84.10;;;;;;4174864;28;20048;-66
2023/02/22 12:45:35;;;;;;;51.28;25.95;;;15.50;84.10;;;;;;4173887;28;20198;-65
2023/02/22 12:48:27;;;;;;;47.63;25.48;;;15.50;84.30;;;;;;4175124;28;20490;-67
2023/02/22 12:51:23;;;;;;;50.22;26.17;;;15.50;84.20;;;;;;4174645;28;20064;-65
2023/02/22 12:54:11;;;;;;;49.08;23.85;;;15.50;84.00;;;;;;4174979;28;20150;-66
2023/02/22 12:56:57;;;;;;;49.35;25.05;;;15.50;84.30;;;;;;4173172;28;20095;-66
2023/02/22 12:59:45;;;;;;;48.25;25.73;;;15.50;84.40;;;;;;4174216;28;20067;-66
2023/02/22 13:02:30;;;;;;;48.10;24.63;;;15.50;83.90;;;;;;4174962;28;20179;-60
2023/02/22 13:05:15;;;;;;;45.60;23.08;;;15.50;83.90;;;;;;4174580;28;20048;-60
2023/02/22 13:08:21;;;;;;;43.97;23.65;;;15.50;84.10;;;;;;4174790;28;20058;-61
2023/02/22 13:11:15;;;;;;;42.55;23.35;;;15.40;83.50;;;;;;4174188;28;20052;-60
2023/02/22 13:14:09;;;;;;;44.88;23.33;;;15.40;83.90;;;;;;4173782;28;20056;-61
2023/02/22 13:16:58;;;;;;;39.88;21.50;;;15.40;84.00;;;;;;4173245;28;20056;-60
2023/02/22 13:19:47;;;;;;;42.97;22.45;;;15.40;83.90;;;;;;4173405;28;20412;-60
2023/02/22 13:22:34;;;;;;;43.50;23.45;;;15.40;83.60;;;;;;4173268;28;20060;-65
2023/02/22 13:25:22;;;;;;;40.92;22.88;;;15.40;83.80;;;;;;4173715;28;20051;-66
2023/02/22 13:28:22;;;;;;;44.38;22.13;;;15.40;84.00;;;;;;4172782;28;20130;-66
2023/02/22 13:31:24;;;;;;;44.00;24.15;;;15.40;84.10;;;;;;4173661;28;20503;-65
2023/02/22 13:34:34;;;;;;;42.58;23.13;;;15.40;84.50;;;;;;4173673;28;20226;-66
2023/02/22 13:37:30;;;;;;;41.78;22.70;;;15.40;84.30;;;;;;4174030;28;20153;-66
2023/02/22 13:40:46;;;;;;;44.05;23.75;;;15.40;84.40;;;;;;4172854;28;21053;-66
2023/02/22 13:43:42;;;;;;;46.15;23.85;;;15.40;84.10;;;;;;4173964;28;20186;-66
2023/02/22 13:46:47;;;;;;;46.95;23.98;;;15.30;84.50;;;;;;4173618;28;20507;-65
2023/02/22 13:50:07;;;;;;;46.35;24.10;;;15.30;84.30;;;;;;4174297;28;20051;-66
2023/02/22 13:52:50;;;;;;;48.88;24.92;;;15.30;84.40;;;;;;4173554;28;20249;-65
2023/02/22 13:55:34;;;;;;;45.17;24.15;;;15.40;84.90;;;;;;4174305;28;20141;-65
2023/02/22 13:58:15;;;;;;;46.65;24.63;;;15.30;84.60;;;;;;4173451;28;20191;-66
2023/02/22 14:00:58;;;;;;;42.67;23.52;;;15.30;84.60;;;;;;4173230;28;20052;-64
2023/02/22 14:03:40;;;;;;;48.83;26.55;;;15.30;84.60;;;;;;4173967;28;20056;-65